Nearby METAR Reports

 

KIAG - Niagara Falls, New York, USA
Distance from station: W 12mi, 20km
Updated: 07/27/2017 1:53pm
Mostly cloudy
Mostly cloudy
 Wind from S
Wind: S 9 mph , 15 km/h
Temperature: 77°F , 25°C
Dew Point: 64°F , 18°C
Humidity: 65%
Barometer: 1013.2 hPa
Clouds: Mostly cloudy
Visibility: 10 miles , 16 km
Cloud details: Partly cloudy 7000 ft
Mostly cloudy 10000 ft
Mostly cloudy 12000 ft
2017/07/27 17:53 KIAG 271753Z 19008KT 10SM SCT070 BKN100 BKN120 25/18 A2992 RMK AO2 SLP127 60000 T02500183 10256 20211 57015
KBUF - Buffalo/Cheektow, New York, USA
Distance from station: S 13mi, 21km
Updated: 07/27/2017 1:54pm
Mostly cloudy
Mostly cloudy
 Wind from SSE
Wind: SSE 6 mph , 9 km/h
Temperature: 73°F , 23°C
Dew Point: 64°F , 18°C
Humidity: 74%
Barometer: 1013.5 hPa
Clouds: Mostly cloudy
Visibility: 10 miles , 16 km
Cloud details: Few Clouds 2000 ft
Partly cloudy 6500 ft
Mostly cloudy 10000 ft
Mostly cloudy 15000 ft
2017/07/27 17:54 KBUF 271754Z 16005KT 10SM FEW020 SCT065 BKN100 BKN150 23/18 A2993 RMK AO2 SLP133 T02330183 10233 20200 56014
 
KROC - Rochester, New York, USA
Distance from station: E 51mi, 82km
Updated: 07/27/2017 1:54pm
Mostly cloudy
Mostly cloudy
 Wind from SSW
Wind: SSW 7 mph , 11 km/h
Temperature: 72°F , 22°C
Dew Point: 68°F , 20°C
Humidity: 88%
Barometer: 1013.2 hPa
Clouds: Mostly cloudy
Visibility: 10 miles , 16 km
Cloud details: Few Clouds 600 ft
Mostly cloudy 4000 ft
Mostly cloudy 9000 ft
2017/07/27 17:54 KROC 271754Z 21006KT 10SM FEW006 BKN040 BKN090 22/20 A2992 RMK AO2 RAE37 SLP134 P0000 60033 T02220200 10222 20194 58015
CYSN - St. Catharines A, Ontario, Canada
Distance from station: WNW 25mi, 40km
Updated: 07/27/2017 2:00pm
Mostly cloudy
Mostly cloudy
 Wind from varies
Wind: varies 2 mph , 4 km/h
Temperature: 79°F , 26°C
Dew Point: 68°F , 20°C
Humidity: 70%
Barometer: 1012.5 hPa
Clouds: Mostly cloudy
Visibility: 15 miles , 24 km
Cloud details: Few Clouds 2700 ft
Mostly cloudy 10000 ft
Mostly cloudy 25000 ft
2017/07/27 18:00 CYSN 271800Z VRB02KT 15SM FEW027 BKN100 BKN250 26/20 A2990 RMK CU2AC4CI1 SLP126 DENSITY ALT 1700FT
 
KOLE - Olean, New York, USA
Distance from station: SSE 63mi, 102km
Updated: 07/27/2017 2:35pm
Overcast
Overcast
 Wind from NE
Wind: NE 3 mph , 6 km/h
Temperature: 70°F , 21°C
Dew Point: 64°F , 18°C
Humidity: 83%
Barometer: 1015.6 hPa
Clouds: Overcast
Visibility: 10 miles , 16 km
Cloud details: Mostly cloudy 2400 ft
Overcast 3200 ft
2017/07/27 18:35 KOLE 271835Z AUTO 05003KT 10SM BKN024 OVC032 21/18 A2999 RMK AO2
KJHW - Jamestown, New York, USA
Distance from station: SSW 74mi, 119km
Updated: 07/27/2017 2:35pm
Partly cloudy
Partly cloudy
 Wind from N
Wind: N 10 mph , 17 km/h
Temperature: 73°F , 23°C
Dew Point: 64°F , 18°C
Humidity: 74%
Barometer: 1014.9 hPa
Clouds: Partly cloudy
Visibility: 10 miles , 16 km
Cloud details: Few Clouds 3400 ft
Partly cloudy 4600 ft
Partly cloudy 9500 ft
2017/07/27 18:35 KJHW 271835Z AUTO 35009KT 10SM FEW034 SCT046 SCT095 23/18 A2997 RMK AO1
 
CWWZ - Port Weller (mar, Ontario, Canada
Distance from station: WNW 28mi, 45km
Updated: 07/27/2017 2:00pm

 Wind from N
Wind: N 8 mph , 13 km/h
Temperature: 77°F , 25°C
Dew Point: 68°F , 20°C
Humidity: 74%
2017/07/27 18:00 CWWZ 271800Z AUTO 01007KT 25/20 RMK AO1 6009 SLP130 T02460203 50026
CWPC - Port Colborne(Au, Ontario, Canada
Distance from station: WSW 33mi, 53km
Updated: 07/27/2017 1:00pm
NOT Current

 Wind from SSE
Wind: SSE 7 mph , 11 km/h
Temperature: 72°F , 22°C
Dew Point: 64°F , 18°C
Humidity: 78%
2017/07/27 17:00 CWPC 271700Z AUTO 16006KT 22/18 RMK AO1 SLP139 T02230176 57007
 
CXVN - Vineland (au8), Ontario, Canada
Distance from station: W 36mi, 58km
Updated: 07/27/2017 2:00pm

 Wind from NNE
Wind: NNE 8 mph , 13 km/h
Temperature: 75°F , 24°C
Dew Point: 68°F , 20°C
Humidity: 78%
2017/07/27 18:00 CXVN 271800Z AUTO 02007KT 24/20 RMK AO1 6013 SLP118 T02420198 50007
CYTZ - Toronto Il Vor, Ontario, Canada
Distance from station: NW 50mi, 81km
Updated: 07/27/2017 2:00pm
Mostly cloudy
Mostly cloudy
 Wind from SSW
Wind: SSW 8 mph , 13 km/h
Temperature: 72°F , 22°C
Dew Point: 66°F , 19°C
Humidity: 83%
Barometer: 1013.2 hPa
Clouds: Mostly cloudy
Visibility: 9 miles , 14 km
Cloud details: Mostly cloudy 10000 ft
2017/07/27 18:00 CYTZ 271800Z AUTO 21007KT 9SM BKN100 22/19 A2992 RMK SLP131 DENSITY ALT 1100FT
 
CXTO - Toronto City, Ontario, Canada
Distance from station: NW 52mi, 84km
Updated: 07/27/2017 2:00pm

 
Temperature: 73°F , 23°C
Dew Point: 66°F , 19°C
Humidity: 78%
2017/07/27 18:00 CXTO 271800Z AUTO 23/19 RMK AO1 5002 SLP132 T02280188 50042
KDKK - Dunkirk, New York, USA
Distance from station: SW 52mi, 84km
Updated: 07/27/2017 1:53pm
Partly cloudy
Partly cloudy
 Wind from NNW
Wind: NNW 6 mph , 9 km/h
Temperature: 75°F , 24°C
Dew Point: 66°F , 19°C
Humidity: 74%
Barometer: 1013.9 hPa
Clouds: Partly cloudy
Visibility: 10 miles , 16 km
Cloud details: Partly cloudy 11000 ft
2017/07/27 17:53 KDKK 271753Z AUTO 33005KT 10SM SCT110 24/19 A2994 RMK AO2 SLP134 T02390194 10256 20200 58009 $
 
CYOO - Oshawa, Ontario, Canada
Distance from station: N 56mi, 90km
Updated: 07/27/2017 2:00pm
Partly cloudy
Partly cloudy
 Wind from SSW
Wind: SSW 10 mph , 17 km/h
Temperature: 77°F , 25°C
Dew Point: 66°F , 19°C
Humidity: 69%
Barometer: 1012.5 hPa
Clouds: Partly cloudy
Visibility: 9 miles , 14 km
Cloud details: Partly cloudy 1700 ft
Partly cloudy 10000 ft
2017/07/27 18:00 CYOO 271800Z AUTO 21009KT 170V250 9SM SCT017 SCT100 25/19 A2990 RMK SLP124 DENSITY ALT 1700FT
CWWB - Burlington Piers, Ontario, Canada
Distance from station: WNW 56mi, 91km
Updated: 07/27/2017 2:00pm

 Wind from ENE
Wind: ENE 8 mph , 13 km/h
Temperature: 72°F , 22°C
Dew Point: 66°F , 19°C
Humidity: 83%
2017/07/27 18:00 CWWB 271800Z AUTO 06007KT 22/19 RMK AO1 SLP126 T02190193 58009
 
CYYZ - Toronto/Pearson, Ontario, Canada
Distance from station: NW 60mi, 96km
Updated: 07/27/2017 2:00pm
Mostly cloudy
Mostly cloudy
 Wind from S
Wind: S 6 mph , 9 km/h
Temperature: 75°F , 24°C
Dew Point: 68°F , 20°C
Humidity: 78%
Barometer: 1012.9 hPa
Clouds: Mostly cloudy
Visibility: 15 miles , 24 km
Cloud details: Partly cloudy 2500 ft
Mostly cloudy 3500 ft
Mostly cloudy 7500 ft
2017/07/27 18:00 CYYZ 271800Z 18005KT 140V210 15SM SCT025 BKN035 BKN075 24/20 A2991 RMK CU4SC1AC2 SLP129 DENSITY ALT 1800FT
CYKZ - Toronto Buttonvi, Ontario, Canada
Distance from station: NW 62mi, 99km
Updated: 07/27/2017 2:00pm
Mostly cloudy
Mostly cloudy
 Wind from SW
Wind: SW 7 mph , 11 km/h
Temperature: 77°F , 25°C
Dew Point: 66°F , 19°C
Humidity: 69%
Barometer: 1012.9 hPa
Clouds: Mostly cloudy
Visibility: 15 miles , 24 km
Cloud details: Mostly cloudy 2300 ft
Mostly cloudy 8800 ft
2017/07/27 18:00 CYKZ 271800Z 22006KT 150V260 15SM BKN023 BKN088 25/19 A2991 RMK CU5AC2 SLP128 DENSITY ALT 2000FT
 
CXHM - Hamilton Rbg Cs, Ontario, Canada
Distance from station: W 62mi, 100km
Updated: 07/27/2017 2:00pm

 Wind from W
Wind: W 5 mph , 7 km/h
Temperature: 81°F , 27°C
Heat Index: 84°F , 29°C
Dew Point: 68°F , 20°C
Humidity: 66%
2017/07/27 18:00 CXHM 271800Z AUTO 28004KT 27/20 RMK AO1 8010 SLP117 T02650199 50022
KDSV - Dansville, New York, USA
Distance from station: SE 62mi, 100km
Updated: 07/27/2017 1:54pm
Mostly cloudy
Mostly cloudy
 Wind from NW
Wind: NW 7 mph , 11 km/h
Temperature: 75°F , 24°C
Dew Point: 66°F , 19°C
Humidity: 74%
Barometer: 1013.9 hPa
Clouds: Mostly cloudy
Visibility: 10 miles , 16 km
Cloud details: Mostly cloudy 8000 ft
2017/07/27 17:54 KDSV 271754Z AUTO 32006KT 10SM BKN080 24/19 A2994 RMK AO2 SLP144 60005 T02440189 10250 20189 58010
 
CYHM - Hamilton Airport, Ontario, Canada
Distance from station: W 63mi, 101km
Updated: 07/27/2017 2:00pm
Mostly cloudy
Mostly cloudy
 Wind from W
Wind: W 7 mph , 11 km/h
Temperature: 77°F , 25°C
Dew Point: 66°F , 19°C
Humidity: 69%
Barometer: 1013.5 hPa
Clouds: Mostly cloudy
Visibility: 15 miles , 24 km
Cloud details: Partly cloudy 2500 ft
Partly cloudy 3800 ft
Mostly cloudy 9500 ft
2017/07/27 18:00 CYHM 271800Z 26006KT 240V320 15SM SCT025 SCT038 BKN095 25/19 A2993 RMK CU3SC1AC2 SLP135 DENSITY ALT 2200FT
CWNC - Cobourg (mars), Ontario, Canada
Distance from station: NNE 63mi, 102km
Updated: 07/27/2017 2:00pm

 Wind from WSW
Wind: WSW 14 mph , 22 km/h
Temperature: 70°F , 21°C
Dew Point: 66°F , 19°C
Humidity: 88%
2017/07/27 18:00 CWNC 271800Z AUTO 25012KT 21/19 RMK AO1 6011 SLP116 T02130187 50004